Time;durP1;ratioP1;P1;durP2;ratioP2;P2;SDS_P1;SDS_P2;PMS_P1;PMS_P2;Temp;Humidity;BMP_temperature;BMP_pressure;BME280_temperature;BME280_humidity;BME280_pressure;Samples;Min_cycle;Max_cycle;Signal;HPM_P1;HPM_P2
2021/12/11 00:02:17;;;;;;;42.92;18.45;;;;;;;4.23;69.73;98916.88;4366198;32;32475;-91
2021/12/11 00:04:49;;;;;;;36.55;17.60;;;;;;;3.68;71.83;98918.56;4366446;32;33862;-90
2021/12/11 00:07:19;;;;;;;33.00;15.88;;;;;;;3.95;70.93;98927.31;4364841;32;32899;-86
2021/12/11 00:09:51;;;;;;;38.70;17.62;;;;;;;4.12;70.37;98924.16;4365122;32;33693;-87
2021/12/11 00:12:26;;;;;;;43.40;17.67;;;;;;;4.21;70.24;98933.47;4365274;32;32326;-87
2021/12/11 00:15:00;;;;;;;37.78;18.37;;;;;;;4.02;70.75;98943.66;4366282;32;33876;-86
2021/12/11 00:17:31;;;;;;;40.28;19.10;;;;;;;3.98;71.24;98944.63;4386925;32;33585;-87
2021/12/11 00:20:00;;;;;;;34.55;16.95;;;;;;;4.11;70.52;98943.38;4386484;32;33525;-86
2021/12/11 00:22:30;;;;;;;34.22;16.40;;;;;;;3.91;71.18;98940.53;4386545;32;32814;-86
2021/12/11 00:25:05;;;;;;;35.17;17.05;;;;;;;4.24;70.21;98949.06;4398177;32;34612;-87
2021/12/11 00:27:36;;;;;;;34.80;15.35;;;;;;;3.93;71.37;98963.06;4385546;32;32991;-86
2021/12/11 00:30:05;;;;;;;35.00;17.00;;;;;;;3.46;72.82;98965.31;4386192;32;32834;-87
2021/12/11 00:32:34;;;;;;;37.30;16.45;;;;;;;4.17;70.75;98964.06;4384658;32;32816;-87
2021/12/11 00:35:20;;;;;;;35.10;16.45;;;;;;;3.80;71.30;98970.44;4386577;32;33303;-92
2021/12/11 00:37:50;;;;;;;37.42;16.73;;;;;;;4.07;70.78;98978.31;4399409;32;33913;-90
2021/12/11 00:40:24;;;;;;;33.97;15.95;;;;;;;3.66;72.01;98988.25;4386763;32;32516;-91
2021/12/11 00:42:57;;;;;;;37.83;17.50;;;;;;;4.29;69.84;98984.59;4400422;32;32364;-90
2021/12/11 00:45:28;;;;;;;33.60;15.95;;;;;;;4.46;69.23;98984.06;4398673;32;33026;-90
2021/12/11 00:48:01;;;;;;;37.38;16.02;;;;;;;4.10;70.31;98996.53;4400605;32;33678;-91
2021/12/11 00:50:36;;;;;;;31.58;15.35;;;;;;;4.03;70.66;99002.81;4373690;32;33855;-91
2021/12/11 00:53:12;;;;;;;39.25;16.77;;;;;;;4.35;69.64;99007.91;4375370;32;32937;-90
2021/12/11 00:55:43;;;;;;;35.67;16.75;;;;;;;4.51;68.82;99016.16;4375240;32;33596;-91
2021/12/11 00:58:17;;;;;;;33.05;15.25;;;;;;;4.54;68.61;99016.03;4375018;32;32884;-92
2021/12/11 01:01:13;;;;;;;29.83;15.55;;;;;;;4.30;69.40;99020.28;4348437;32;32964;-92
2021/12/11 01:04:24;;;;;;;32.50;14.80;;;;;;;4.33;69.38;99025.44;4360065;32;32857;-93
2021/12/11 01:07:16;;;;;;;33.38;14.98;;;;;;;4.28;70.08;99022.09;4387640;32;33100;-93
2021/12/11 01:10:23;;;;;;;35.75;15.43;;;;;;;4.23;69.84;99025.75;4379685;32;33520;-90
2021/12/11 01:12:59;;;;;;;34.38;16.67;;;;;;;4.32;69.57;99020.22;4374773;32;32700;-88
2021/12/11 01:15:33;;;;;;;32.90;14.13;;;;;;;4.09;70.33;99023.56;4374444;32;33496;-87
2021/12/11 01:18:22;;;;;;;35.65;15.82;;;;;;;4.46;69.01;99018.03;4374545;32;32909;-88
2021/12/11 01:21:00;;;;;;;34.03;15.25;;;;;;;4.21;69.79;99028.41;4369281;32;33950;-89
2021/12/11 01:26:04;;;;;;;34.33;16.20;;;;;;;4.65;68.44;99027.91;4374851;32;35099;-88
2021/12/11 01:28:32;;;;;;;33.33;15.27;;;;;;;4.41;69.05;99034.78;4377239;32;33263;-87
2021/12/11 01:31:04;;;;;;;38.13;16.65;;;;;;;4.29;69.14;99025.56;4370616;32;33241;-88
2021/12/11 01:33:32;;;;;;;34.00;15.82;;;;;;;4.42;69.08;99026.91;4376811;32;34234;-88
2021/12/11 01:36:01;;;;;;;38.70;16.12;;;;;;;4.02;70.17;99037.69;4376520;32;33339;-88
2021/12/11 01:38:29;;;;;;;38.00;15.63;;;;;;;4.09;70.30;99036.62;4376400;32;33313;-88
2021/12/11 01:41:01;;;;;;;35.45;15.73;;;;;;;4.46;69.46;99040.72;4376636;32;33355;-88
2021/12/11 01:43:30;;;;;;;38.80;15.43;;;;;;;4.65;68.58;99038.38;4358116;32;32771;-88
2021/12/11 01:45:59;;;;;;;34.67;16.48;;;;;;;4.53;68.92;99037.03;4389018;32;34161;-88
2021/12/11 01:48:31;;;;;;;32.03;15.27;;;;;;;4.70;68.26;99047.81;4377088;32;33381;-88
2021/12/11 01:51:04;;;;;;;35.30;15.80;;;;;;;4.54;68.75;99043.94;4377877;32;34594;-89
2021/12/11 01:53:40;;;;;;;32.00;16.20;;;;;;;4.44;69.11;99055.59;4377733;32;32669;-89
2021/12/11 01:56:15;;;;;;;36.92;15.00;;;;;;;4.46;69.51;99056.41;4377247;32;32934;-88
2021/12/11 01:58:50;;;;;;;32.38;15.85;;;;;;;4.88;67.68;99048.94;4371509;32;32356;-90
2021/12/11 02:01:31;;;;;;;31.58;15.55;;;;;;;4.39;69.36;99040.06;4367130;32;34375;-90
2021/12/11 02:04:00;;;;;;;33.67;15.35;;;;;;;4.43;69.43;99044.28;4377100;32;32956;-90
2021/12/11 02:06:32;;;;;;;43.60;17.90;;;;;;;4.33;69.59;99038.50;4376961;32;33048;-90
2021/12/11 02:09:13;;;;;;;34.58;17.02;;;;;;;3.99;71.11;99040.41;4383499;32;33585;-88
2021/12/11 02:11:41;;;;;;;34.72;14.95;;;;;;;4.57;69.21;99038.63;4391795;32;33601;-89
2021/12/11 02:14:11;;;;;;;32.25;15.15;;;;;;;4.97;67.75;99029.50;4391239;32;33283;-90
2021/12/11 02:16:44;;;;;;;30.83;16.30;;;;;;;5.10;66.94;99026.41;4390986;32;32341;-89
2021/12/11 02:19:30;;;;;;;42.38;15.30;;;;;;;5.02;67.09;99022.34;4391765;32;33511;-90
2021/12/11 02:22:01;;;;;;;33.45;14.77;;;;;;;4.73;68.56;99021.53;4391446;32;33957;-89
2021/12/11 02:24:37;;;;;;;34.58;14.87;;;;;;;4.65;68.75;99023.53;4390534;32;33811;-88
2021/12/11 02:27:33;;;;;;;36.60;15.05;;;;;;;4.87;67.96;99023.72;4365786;32;33844;-89
2021/12/11 02:30:24;;;;;;;32.78;15.57;;;;;;;4.40;69.71;99023.47;4391500;32;34717;-89
2021/12/11 02:33:08;;;;;;;32.92;15.27;;;;;;;4.56;68.98;99024.72;4378620;32;32982;-88
2021/12/11 02:35:54;;;;;;;34.35;14.95;;;;;;;4.53;69.59;99023.94;4378152;32;33544;-88
2021/12/11 02:38:36;;;;;;;30.88;13.38;;;;;;;4.74;68.66;99030.25;4391052;32;32401;-90
2021/12/11 02:41:09;;;;;;;33.63;15.48;;;;;;;4.45;69.54;99028.56;4392045;32;32986;-91
2021/12/11 02:43:51;;;;;;;36.17;14.52;;;;;;;4.27;70.47;99020.41;4379159;32;33782;-91
2021/12/11 02:46:32;;;;;;;;;;;;;;;4.72;68.89;99014.59;4378649;32;32891;-89
2021/12/11 02:49:10;;;;;;;30.45;12.85;;;;;;;4.78;68.60;99011.78;4378014;32;33720;-88
2021/12/11 02:51:45;;;;;;;40.45;15.98;;;;;;;4.37;70.33;99018.34;4377638;32;32849;-88
2021/12/11 02:54:15;;;;;;;28.50;13.75;;;;;;;4.45;70.49;99023.31;4391017;32;33274;-88
2021/12/11 02:57:04;;;;;;;32.58;15.30;;;;;;;5.03;68.16;99014.47;4389849;32;33899;-88
2021/12/11 02:59:39;;;;;;;37.97;14.55;;;;;;;4.87;68.75;99019.31;4391258;32;32042;-89
2021/12/11 03:02:13;;;;;;;32.08;15.38;;;;;;;5.08;67.91;99006.41;4378553;32;32881;-88
2021/12/11 03:04:51;;;;;;;30.10;13.40;;;;;;;4.84;68.03;99003.75;4378823;32;33812;-89
2021/12/11 03:07:24;;;;;;;32.80;13.40;;;;;;;4.59;68.98;98981.91;4378684;32;32882;-88
2021/12/11 03:09:54;;;;;;;;;;;;;;;4.58;69.38;98991.50;4385994;32;32163;-89
2021/12/11 03:12:24;;;;;;;31.23;13.25;;;;;;;4.61;69.62;98995.81;4396785;32;33458;-88
2021/12/11 03:14:53;;;;;;;32.70;14.50;;;;;;;4.84;68.85;99001.13;4397939;32;34333;-88
2021/12/11 03:17:22;;;;;;;33.00;14.05;;;;;;;4.94;68.60;99013.88;4397388;32;34583;-88
2021/12/11 03:19:52;;;;;;;34.13;14.45;;;;;;;5.11;67.83;99019.41;4398645;32;32337;-88
2021/12/11 03:22:27;;;;;;;31.75;15.90;;;;;;;5.06;67.94;99029.19;4386396;32;34252;-89
2021/12/11 03:24:55;;;;;;;35.63;16.20;;;;;;;5.19;67.57;99040.94;4384753;32;34528;-88
2021/12/11 03:27:24;;;;;;;35.83;14.32;;;;;;;4.81;68.78;99043.06;4386230;32;33549;-88
2021/12/11 03:29:52;;;;;;;32.83;14.77;;;;;;;4.96;68.43;99048.72;4395626;32;33560;-88
2021/12/11 03:32:21;;;;;;;37.97;15.18;;;;;;;5.27;68.08;99054.66;4397632;32;33482;-88
2021/12/11 03:34:50;;;;;;;35.97;14.07;;;;;;;5.38;66.76;99057.75;4399553;32;33936;-88
2021/12/11 03:37:19;;;;;;;29.58;13.57;;;;;;;5.08;67.97;99069.22;4370002;32;32726;-88
2021/12/11 03:39:50;;;;;;;33.70;14.40;;;;;;;5.10;68.13;99078.75;4393539;32;33360;-90
2021/12/11 03:42:22;;;;;;;28.23;12.90;;;;;;;5.26;67.72;99084.31;4385281;32;32473;-90
2021/12/11 03:44:51;;;;;;;26.75;11.50;;;;;;;5.34;67.63;99087.53;4396466;32;33259;-90
2021/12/11 03:47:26;;;;;;;21.65;8.65;;;;;;;5.53;66.27;99082.53;4398065;32;33077;-92
2021/12/11 03:49:56;;;;;;;17.70;7.90;;;;;;;5.30;66.26;99082.47;4386824;32;33510;-92
2021/12/11 03:52:24;;;;;;;22.40;10.60;;;;;;;5.45;64.89;99079.31;4385290;32;32196;-91
2021/12/11 03:54:54;;;;;;;25.27;10.88;;;;;;;5.53;64.30;99079.91;4387420;32;33677;-89
2021/12/11 03:57:27;;;;;;;27.20;11.77;;;;;;;5.40;64.45;99079.47;4386730;32;33041;-89
2021/12/11 03:59:56;;;;;;;23.62;11.43;;;;;;;5.33;64.58;99078.00;4400894;32;32571;-92
2021/12/11 04:02:45;;;;;;;24.10;10.60;;;;;;;5.66;63.72;99069.88;4398326;32;32417;-92
2021/12/11 04:05:55;;;;;;;24.37;11.75;;;;;;;5.65;63.36;99068.16;4376568;32;33004;-91
2021/12/11 04:08:27;;;;;;;26.55;10.23;;;;;;;5.43;64.42;99062.81;4360026;32;32547;-91
2021/12/11 04:11:24;;;;;;;25.17;10.85;;;;;;;5.55;64.44;99072.00;4378355;32;32366;-93
2021/12/11 04:14:25;;;;;;;19.90;8.85;;;;;;;5.82;63.33;99068.41;4354273;32;33505;-92
2021/12/11 04:17:18;;;;;;;21.35;9.10;;;;;;;5.49;64.21;99074.84;4351127;32;31875;-92
2021/12/11 04:20:06;;;;;;;21.80;9.80;;;;;;;5.30;63.99;99088.56;4370001;32;33230;-91
2021/12/11 04:23:03;;;;;;;20.73;9.65;;;;;;;5.27;64.47;99079.94;4373553;32;32494;-90
2021/12/11 04:25:54;;;;;;;24.85;10.27;;;;;;;5.15;64.91;99078.59;4367914;32;32587;-90
2021/12/11 04:28:46;;;;;;;18.80;8.98;;;;;;;5.03;65.54;99081.59;4340710;32;33192;-92
2021/12/11 04:31:20;;;;;;;17.62;8.80;;;;;;;5.11;64.87;99079.59;4352162;32;33578;-91
2021/12/11 04:33:50;;;;;;;24.60;10.95;;;;;;;5.09;64.88;99090.12;4351394;32;32403;-92
2021/12/11 04:36:26;;;;;;;22.73;9.50;;;;;;;5.12;64.67;99095.25;4342453;32;33102;-92
2021/12/11 04:39:17;;;;;;;20.37;8.75;;;;;;;4.82;65.06;99099.72;4353417;32;33328;-92
2021/12/11 04:41:58;;;;;;;24.55;9.57;;;;;;;4.84;65.15;99102.25;4349502;32;34163;-91
2021/12/11 04:44:37;;;;;;;23.27;10.35;;;;;;;4.80;65.59;99101.53;4351677;32;32322;-90
2021/12/11 04:47:10;;;;;;;17.08;9.25;;;;;;;4.65;66.03;99101.97;4349938;32;32737;-90
2021/12/11 04:49:46;;;;;;;17.95;8.70;;;;;;;4.71;65.72;99104.44;4351897;32;33033;-91
2021/12/11 04:52:33;;;;;;;22.95;9.63;;;;;;;4.66;65.90;99098.50;4351366;32;33752;-91
2021/12/11 04:55:27;;;;;;;19.58;8.52;;;;;;;4.47;66.56;99113.03;4347802;32;31626;-91
2021/12/11 05:10:57;;;;;;;20.48;7.87;;;;;;;4.55;65.92;99122.31;4335167;32;34072;-88
2021/12/11 05:13:28;;;;;;;16.60;7.87;;;;;;;4.48;66.53;99135.66;4353298;32;33735;-90
2021/12/11 05:16:03;;;;;;;18.40;8.27;;;;;;;4.54;66.01;99133.69;4355101;32;32899;-90
2021/12/11 05:18:33;;;;;;;19.70;7.47;;;;;;;4.71;65.64;99137.56;4350263;32;33327;-90
2021/12/11 05:21:07;;;;;;;14.82;7.22;;;;;;;4.63;65.59;99140.41;4341931;33;32369;-90
2021/12/11 05:23:35;;;;;;;18.15;7.60;;;;;;;4.56;65.47;99129.28;4353122;32;33093;-91
2021/12/11 05:26:04;;;;;;;14.18;7.40;;;;;;;4.44;65.92;99136.62;4353299;32;32546;-88
2021/12/11 05:28:32;;;;;;;14.70;6.87;;;;;;;4.43;65.76;99132.31;4367261;32;32287;-92
2021/12/11 05:31:21;;;;;;;15.32;7.68;;;;;;;4.30;66.06;99135.28;4365531;32;32992;-87
2021/12/11 05:33:49;;;;;;;13.10;7.10;;;;;;;4.10;67.04;99135.00;4365376;32;33010;-88
2021/12/11 05:36:19;;;;;;;17.15;6.40;;;;;;;4.12;67.07;99135.78;4364504;32;32911;-88
2021/12/11 05:38:48;;;;;;;12.15;6.50;;;;;;;4.16;66.51;99141.78;4362350;32;34891;-87
2021/12/11 05:41:18;;;;;;;16.37;7.78;;;;;;;4.12;66.41;99146.25;4362195;32;33239;-88
2021/12/11 05:43:46;;;;;;;13.77;7.22;;;;;;;4.16;66.67;99158.31;4362835;32;34459;-88
2021/12/11 05:46:16;;;;;;;14.85;7.53;;;;;;;4.32;66.32;99150.91;4366660;32;33699;-88
2021/12/11 05:48:46;;;;;;;15.05;6.82;;;;;;;4.37;66.27;99147.28;4364607;32;33140;-88
2021/12/11 05:51:19;;;;;;;15.98;7.72;;;;;;;4.37;66.27;99155.13;4365563;32;34202;-88
2021/12/11 05:53:47;;;;;;;;;;;;;;;4.49;65.98;99153.03;4367894;32;32818;-88
2021/12/11 05:56:15;;;;;;;16.87;7.45;;;;;;;4.49;65.89;99159.12;4361500;32;32133;-88
2021/12/11 06:01:23;;;;;;;16.58;7.85;;;;;;;4.49;65.93;99174.81;4361831;32;34006;-88
2021/12/11 06:03:52;;;;;;;18.80;7.50;;;;;;;4.42;66.09;99183.75;4364391;32;34563;-88
2021/12/11 06:06:20;;;;;;;15.63;7.22;;;;;;;4.56;65.88;99183.34;4366656;32;33233;-88
2021/12/11 06:08:47;;;;;;;18.08;7.85;;;;;;;4.74;65.04;99193.25;4367329;32;33122;-88
2021/12/11 06:11:16;;;;;;;16.50;6.70;;;;;;;4.54;65.30;99208.66;4362427;32;34042;-88
2021/12/11 06:13:44;;;;;;;13.35;5.85;;;;;;;4.72;64.86;99215.97;4365953;32;33411;-89
2021/12/11 06:16:14;;;;;;;19.85;8.00;;;;;;;4.52;64.71;99226.16;4365150;32;32684;-88
2021/12/11 06:18:44;;;;;;;17.98;7.87;;;;;;;4.40;65.25;99240.41;4363772;32;34061;-88
2021/12/11 06:21:13;;;;;;;17.92;8.68;;;;;;;4.22;66.14;99241.75;4367759;32;32688;-88
2021/12/11 06:23:41;;;;;;;19.98;8.02;;;;;;;4.35;66.41;99244.91;4369228;32;33912;-88
2021/12/11 06:26:10;;;;;;;20.85;8.82;;;;;;;4.57;65.71;99245.19;4367447;32;32080;-90
2021/12/11 06:28:38;;;;;;;16.00;7.97;;;;;;;4.87;64.47;99254.75;4367406;32;33063;-90
2021/12/11 06:31:07;;;;;;;20.42;8.05;;;;;;;5.00;63.70;99255.25;4367954;32;32818;-90
2021/12/11 06:33:34;;;;;;;17.37;8.75;;;;;;;4.87;63.87;99260.00;4367672;32;32844;-89
2021/12/11 06:36:08;;;;;;;20.42;10.82;;;;;;;4.62;65.22;99264.22;4373253;32;32378;-90
2021/12/11 06:38:37;;;;;;;20.30;8.25;;;;;;;4.60;65.33;99268.63;4366107;32;33083;-90
2021/12/11 06:41:06;;;;;;;21.83;8.50;;;;;;;4.50;65.51;99277.63;4366466;32;33249;-90
2021/12/11 06:43:35;;;;;;;17.05;7.72;;;;;;;4.28;66.14;99280.81;4366410;32;33147;-89
2021/12/11 06:46:03;;;;;;;14.95;8.00;;;;;;;4.04;66.98;99291.91;4367856;32;32209;-89
2021/12/11 06:48:31;;;;;;;14.50;7.03;;;;;;;3.94;67.46;99296.50;4367663;32;34436;-89
2021/12/11 06:51:00;;;;;;;12.85;7.25;;;;;;;4.37;65.80;99291.03;4365920;32;33582;-90
2021/12/11 06:53:50;;;;;;;17.25;7.82;;;;;;;4.28;66.17;99306.09;4363967;32;32732;-90
2021/12/11 06:56:19;;;;;;;18.50;8.20;;;;;;;4.43;66.10;99300.47;4365109;32;33639;-89
2021/12/11 06:58:48;;;;;;;26.48;9.15;;;;;;;4.56;65.74;99301.00;4365407;32;34140;-90
2021/12/11 07:01:16;;;;;;;14.65;7.85;;;;;;;4.69;64.86;99311.97;4369725;32;33046;-91
2021/12/11 07:03:53;;;;;;;15.05;6.85;;;;;;;4.61;65.30;99330.50;4368105;32;32842;-91
2021/12/11 07:06:21;;;;;;;13.98;6.12;;;;;;;4.55;65.05;99330.63;4366307;32;32162;-91
2021/12/11 07:08:52;;;;;;;14.85;7.00;;;;;;;4.21;66.14;99335.88;4367717;32;34030;-91
2021/12/11 07:11:22;;;;;;;15.05;6.37;;;;;;;4.40;65.54;99346.72;4362970;32;32915;-91
2021/12/11 07:13:50;;;;;;;11.30;6.25;;;;;;;4.60;64.79;99354.91;4362294;32;31726;-92
2021/12/11 07:16:20;;;;;;;14.05;7.25;;;;;;;4.64;64.37;99361.78;4366607;32;32642;-91
2021/12/11 07:18:50;;;;;;;12.55;6.50;;;;;;;4.41;64.89;99370.22;4371251;32;32337;-90
2021/12/11 07:21:18;;;;;;;21.37;6.93;;;;;;;4.48;64.47;99371.78;4366818;32;32923;-90
2021/12/11 07:23:48;;;;;;;26.00;7.40;;;;;;;4.55;64.66;99385.53;4363035;32;32787;-90
2021/12/11 07:26:22;;;;;;;12.73;6.45;;;;;;;4.38;65.16;99391.22;4363879;32;33945;-90
2021/12/11 07:28:54;;;;;;;15.25;6.85;;;;;;;4.40;65.63;99393.78;4361524;32;32654;-89
2021/12/11 07:31:23;;;;;;;16.12;6.93;;;;;;;4.24;66.60;99409.00;4367666;32;32962;-89
2021/12/11 07:33:52;;;;;;;15.20;6.25;;;;;;;4.76;65.25;99405.91;4361163;32;33682;-89
2021/12/11 07:36:20;;;;;;;15.40;6.37;;;;;;;5.06;63.89;99406.00;4367595;32;33282;-90
2021/12/11 07:38:50;;;;;;;16.37;6.87;;;;;;;5.28;62.49;99404.50;4361493;32;34583;-90
2021/12/11 07:41:18;;;;;;;14.27;6.45;;;;;;;5.27;62.71;99408.03;4367834;32;33271;-90
2021/12/11 07:43:47;;;;;;;17.87;7.60;;;;;;;5.28;62.67;99407.13;4367139;32;32922;-90
2021/12/11 07:46:20;;;;;;;19.10;8.00;;;;;;;5.20;62.54;99409.06;4361076;32;33378;-90
2021/12/11 07:48:48;;;;;;;12.77;5.80;;;;;;;5.07;63.27;99415.53;4365603;32;32831;-89
2021/12/11 07:51:16;;;;;;;11.35;6.18;;;;;;;5.12;62.56;99411.03;4362997;32;32890;-90
2021/12/11 07:53:44;;;;;;;16.35;7.50;;;;;;;4.99;62.83;99404.47;4366270;32;32952;-89
2021/12/11 07:56:12;;;;;;;14.52;6.90;;;;;;;4.91;63.53;99406.41;4361556;32;33377;-90
2021/12/11 07:58:41;;;;;;;10.98;6.20;;;;;;;4.80;63.73;99407.56;4367603;32;33112;-90
2021/12/11 08:01:08;;;;;;;13.35;5.87;;;;;;;4.68;63.89;99399.16;4354234;32;33985;-89
2021/12/11 08:03:37;;;;;;;11.65;6.05;;;;;;;4.68;63.56;99402.62;4368183;32;33830;-90
2021/12/11 08:06:06;;;;;;;10.30;4.95;;;;;;;4.74;63.42;99412.94;4363227;32;35122;-89
2021/12/11 08:08:35;;;;;;;8.55;4.43;;;;;;;4.52;63.76;99411.78;4361476;32;33555;-90
2021/12/11 08:11:07;;;;;;;8.80;4.93;;;;;;;4.31;64.19;99419.25;4368063;32;33064;-89
2021/12/11 08:13:34;;;;;;;9.82;4.47;;;;;;;4.36;64.16;99414.75;4366529;32;33266;-90
2021/12/11 08:16:03;;;;;;;6.30;3.78;;;;;;;4.26;64.18;99418.50;4361118;32;32691;-90
2021/12/11 08:18:31;;;;;;;8.55;4.43;;;;;;;4.25;64.23;99427.25;4366175;32;33459;-90
2021/12/11 08:21:00;;;;;;;9.75;4.85;;;;;;;4.32;63.83;99430.56;4361319;32;33693;-90
2021/12/11 08:23:29;;;;;;;11.75;5.43;;;;;;;4.41;63.80;99430.34;4366535;32;32800;-89
2021/12/11 08:25:59;;;;;;;10.23;5.43;;;;;;;4.40;64.32;99427.78;4361136;32;33033;-90
2021/12/11 08:28:30;;;;;;;8.82;4.45;;;;;;;4.42;63.83;99433.84;4365176;32;32810;-91
2021/12/11 08:31:22;;;;;;;10.00;4.30;;;;;;;4.53;62.95;99432.66;4346478;32;143692;-90
2021/12/11 08:34:04;;;;;;;10.82;4.15;;;;;;;4.43;63.22;99440.78;4347012;32;32649;-90
2021/12/11 08:36:33;;;;;;;7.97;3.87;;;;;;;4.18;63.89;99449.22;4348724;32;33536;-89
2021/12/11 08:39:05;;;;;;;6.25;3.72;;;;;;;4.21;63.83;99435.19;4344898;32;33261;-90
2021/12/11 08:41:38;;;;;;;9.38;3.95;;;;;;;4.03;64.04;99441.69;4338651;33;33072;-89
2021/12/11 08:44:12;;;;;;;9.57;4.62;;;;;;;3.98;64.37;99438.34;4361007;32;32768;-90
2021/12/11 08:46:47;;;;;;;8.88;4.18;;;;;;;4.02;65.14;99442.59;4351604;32;32220;-90
2021/12/11 08:49:19;;;;;;;8.57;3.85;;;;;;;4.22;64.65;99447.34;4339077;33;32803;-90
2021/12/11 08:51:59;;;;;;;7.68;4.03;;;;;;;4.18;64.45;99443.97;4337861;33;33173;-87
2021/12/11 08:54:28;;;;;;;10.27;4.35;;;;;;;4.37;64.12;99444.41;4350638;32;33513;-89
2021/12/11 08:57:00;;;;;;;8.50;5.10;;;;;;;4.28;64.18;99450.69;4326012;33;32823;-90
2021/12/11 08:59:29;;;;;;;7.75;3.97;;;;;;;4.27;64.69;99451.59;4337911;33;33905;-90
2021/12/11 09:02:28;;;;;;;8.95;4.93;;;;;;;4.35;64.18;99460.09;4386604;32;33211;-89
2021/12/11 09:05:11;;;;;;;8.48;3.22;;;;;;;4.26;63.82;99459.47;4374279;32;32503;-85
2021/12/11 09:07:49;;;;;;;6.15;3.60;;;;;;;4.25;64.39;99458.59;4388019;32;33048;-88
2021/12/11 09:10:35;;;;;;;9.07;4.30;;;;;;;4.19;64.42;99471.81;4389317;32;33638;-92
2021/12/11 09:13:12;;;;;;;7.00;3.62;;;;;;;4.33;64.06;99459.28;4367367;32;33262;-92
2021/12/11 09:16:00;;;;;;;8.32;3.35;;;;;;;4.17;64.23;99468.37;4358833;32;33982;-91
2021/12/11 09:18:52;;;;;;;5.72;2.75;;;;;;;3.90;64.63;99469.88;4366919;32;32195;-84
2021/12/11 09:21:55;;;;;;;6.60;3.60;;;;;;;3.59;66.16;99480.09;4364048;32;32333;-85
2021/12/11 09:24:27;;;;;;;6.00;3.58;;;;;;;3.87;65.62;99482.13;4354667;32;32636;-84
2021/12/11 09:27:24;;;;;;;5.45;2.67;;;;;;;4.06;64.86;99488.66;4365751;32;32862;-85
2021/12/11 09:30:09;;;;;;;6.97;3.75;;;;;;;4.02;64.96;99495.69;4352359;32;34190;-85
2021/12/11 09:32:54;;;;;;;5.05;3.08;;;;;;;4.18;64.05;99493.62;4345966;33;33556;-85
2021/12/11 09:35:24;;;;;;;7.82;3.25;;;;;;;4.20;64.56;99490.97;4356038;32;33939;-85
2021/12/11 09:37:56;;;;;;;7.82;3.20;;;;;;;4.32;64.36;99496.78;4368043;32;33646;-90
2021/12/11 09:40:44;;;;;;;7.85;3.78;;;;;;;4.28;64.13;99505.59;4350631;32;32689;-90
2021/12/11 09:43:38;;;;;;;5.20;3.05;;;;;;;4.35;64.00;99509.75;4367038;32;32931;-90
2021/12/11 09:46:47;;;;;;;5.33;2.80;;;;;;;4.37;63.79;99509.75;4354714;32;32826;-90
2021/12/11 09:49:22;;;;;;;7.37;3.70;;;;;;;4.40;63.28;99514.03;4354517;32;33305;-90
2021/12/11 09:52:01;;;;;;;8.80;3.28;;;;;;;4.34;63.96;99507.19;4368620;32;32450;-90
2021/12/11 09:54:35;;;;;;;7.72;3.50;;;;;;;4.44;64.12;99507.84;4353220;32;32401;-85
2021/12/11 09:57:07;;;;;;;8.70;4.22;;;;;;;4.49;63.63;99501.59;4349939;32;33378;-90
2021/12/11 09:59:38;;;;;;;6.50;3.45;;;;;;;4.47;63.52;99502.56;4370057;32;32249;-92
2021/12/11 10:02:33;;;;;;;11.40;5.72;;;;;;;4.45;63.57;99499.09;4374683;32;33160;-91
2021/12/11 10:05:37;;;;;;;5.25;3.10;;;;;;;4.43;63.89;99493.06;4366749;32;32635;-90
2021/12/11 10:11:28;;;;;;;4.43;2.67;;;;;;;4.09;64.22;99486.00;4376633;32;32814;-92
2021/12/11 10:14:19;;;;;;;7.47;4.05;;;;;;;4.25;64.44;99482.13;4363657;32;31667;-91
2021/12/11 10:16:53;;;;;;;7.97;3.83;;;;;;;4.46;63.98;99479.91;4383899;32;33024;-92
2021/12/11 10:19:29;;;;;;;10.77;4.75;;;;;;;4.52;63.73;99487.62;4373090;32;33487;-91
2021/12/11 10:22:39;;;;;;;6.95;3.95;;;;;;;4.65;63.24;99482.91;4373523;32;32648;-91
2021/12/11 10:25:27;;;;;;;9.68;5.18;;;;;;;4.75;62.51;99474.84;4398325;32;33666;-92
2021/12/11 10:28:27;;;;;;;6.28;3.87;;;;;;;4.73;63.21;99481.84;4386885;32;33328;-92
2021/12/11 10:31:03;;;;;;;8.05;4.10;;;;;;;4.73;63.13;99489.69;4389708;32;33277;-92
2021/12/11 10:33:54;;;;;;;5.82;3.37;;;;;;;4.73;63.07;99486.22;4384872;32;32701;-92
2021/12/11 10:36:37;;;;;;;6.53;3.80;;;;;;;4.78;62.90;99486.97;4389422;32;32580;-92
2021/12/11 10:39:43;;;;;;;6.68;4.20;;;;;;;4.68;63.10;99504.63;4362560;32;32316;-91
2021/12/11 10:42:12;;;;;;;7.00;3.50;;;;;;;4.67;63.67;99494.22;4380651;32;33192;-91
2021/12/11 10:45:01;;;;;;;6.37;4.28;;;;;;;4.54;63.80;99501.50;4368974;32;32535;-92
2021/12/11 10:47:37;;;;;;;6.15;3.50;;;;;;;4.50;64.35;99502.47;4380203;32;32362;-91
2021/12/11 10:50:41;;;;;;;7.78;3.33;;;;;;;4.45;63.69;99513.03;4368065;32;32235;-91
2021/12/11 10:53:27;;;;;;;4.93;2.87;;;;;;;4.26;64.72;99503.88;4385423;32;33800;-91
2021/12/11 10:56:00;;;;;;;6.53;4.10;;;;;;;4.17;65.01;99497.13;4380288;32;32736;-91
2021/12/11 10:58:40;;;;;;;;;;;;;;;4.21;65.39;99493.53;4380350;32;32804;-92
2021/12/11 11:01:37;;;;;;;9.02;4.25;;;;;;;4.19;65.06;99492.72;4369409;32;32934;-92
2021/12/11 11:04:14;;;;;;;7.22;3.70;;;;;;;4.34;64.74;99494.97;4370234;32;34070;-92
2021/12/11 11:07:05;;;;;;;7.35;3.35;;;;;;;4.17;65.28;99491.88;4359718;32;32478;-92
2021/12/11 11:09:59;;;;;;;5.57;3.15;;;;;;;4.18;65.16;99488.41;4352288;32;33276;-91
2021/12/11 11:12:29;;;;;;;4.70;3.12;;;;;;;3.98;65.54;99483.59;4320605;32;32552;-91
2021/12/11 11:15:21;;;;;;;7.37;3.33;;;;;;;4.02;65.78;99481.78;4332854;32;32748;-91
2021/12/11 11:18:20;;;;;;;5.90;3.40;;;;;;;4.05;65.96;99482.59;4334555;32;32786;-91
2021/12/11 11:20:53;;;;;;;5.85;3.72;;;;;;;4.19;65.48;99490.13;4343335;32;32679;-91
2021/12/11 11:23:44;;;;;;;6.40;4.15;;;;;;;4.39;65.18;99486.19;4333586;32;32957;-91
2021/12/11 11:26:18;;;;;;;6.40;3.72;;;;;;;4.39;64.69;99480.94;4342135;32;33393;-91
2021/12/11 11:29:09;;;;;;;5.50;3.30;;;;;;;4.17;65.49;99476.22;4332996;32;33732;-91
2021/12/11 11:31:39;;;;;;;6.80;3.80;;;;;;;4.20;65.16;99481.38;4341186;32;32700;-91
2021/12/11 11:34:16;;;;;;;8.50;4.68;;;;;;;4.27;65.17;99482.97;4328593;32;32289;-91
2021/12/11 11:36:45;;;;;;;6.93;3.42;;;;;;;4.39;65.41;99478.34;4340408;32;33445;-91
2021/12/11 11:39:38;;;;;;;6.30;3.47;;;;;;;4.32;65.03;99482.84;4332853;32;32551;-91
2021/12/11 11:42:15;;;;;;;13.62;5.10;;;;;;;4.35;65.36;99474.94;4343347;32;32930;-85
2021/12/11 11:44:45;;;;;;;9.43;4.90;;;;;;;4.40;64.99;99477.44;4329284;32;32375;-84
2021/12/11 11:47:14;;;;;;;10.77;4.62;;;;;;;4.46;65.06;99474.66;4339221;32;32854;-85
2021/12/11 11:49:43;;;;;;;8.65;4.28;;;;;;;4.69;63.94;99481.94;4314171;32;32181;-86
2021/12/11 11:52:19;;;;;;;5.95;4.10;;;;;;;4.65;64.04;99486.38;4341420;32;32346;-83
2021/12/11 11:54:51;;;;;;;5.60;3.53;;;;;;;4.74;63.91;99498.37;4341521;32;32565;-85
2021/12/11 11:57:28;;;;;;;9.45;4.12;;;;;;;4.58;63.65;99503.16;4341681;33;33808;-86
2021/12/11 11:59:58;;;;;;;9.75;4.07;;;;;;;4.42;64.68;99513.13;4339773;32;32756;-90
2021/12/11 12:02:30;;;;;;;7.30;3.97;;;;;;;4.55;64.99;99508.44;4339613;32;32456;-86
2021/12/11 12:05:00;;;;;;;10.98;4.30;;;;;;;4.76;64.00;99507.94;4328103;32;35099;-87
2021/12/11 12:07:30;;;;;;;5.90;4.20;;;;;;;4.81;63.99;99515.66;4346684;32;32654;-86
2021/12/11 12:10:11;;;;;;;8.27;3.75;;;;;;;5.10;62.87;99522.78;4328149;32;32819;-86
2021/12/11 12:12:39;;;;;;;9.07;5.12;;;;;;;5.45;61.84;99521.81;4326968;32;32143;-86
2021/12/11 12:15:11;;;;;;;7.25;4.18;;;;;;;5.54;61.26;99525.97;4338797;32;34210;-87
2021/12/11 12:17:39;;;;;;;9.20;4.07;;;;;;;5.35;62.41;99529.06;4339416;32;33596;-86
2021/12/11 12:20:10;;;;;;;9.75;5.40;;;;;;;5.13;62.52;99534.03;4329576;32;32811;-87
2021/12/11 12:22:48;;;;;;;11.00;5.28;;;;;;;5.25;62.35;99522.38;4340474;32;33479;-86
2021/12/11 12:25:16;;;;;;;8.25;4.78;;;;;;;5.39;62.74;99532.47;4328677;32;32414;-86
2021/12/11 12:27:45;;;;;;;10.00;4.90;;;;;;;5.87;61.33;99521.53;4337500;32;33667;-86
2021/12/11 12:30:21;;;;;;;8.38;4.93;;;;;;;5.95;60.36;99527.44;4327309;32;33666;-86
2021/12/11 12:32:54;;;;;;;8.13;5.00;;;;;;;5.89;61.00;99523.22;4348579;32;34425;-87
2021/12/11 12:35:24;;;;;;;10.60;5.28;;;;;;;6.03;60.76;99521.97;4341520;32;32899;-86
2021/12/11 12:37:53;;;;;;;7.68;3.72;;;;;;;6.39;59.13;99515.59;4328741;32;34206;-86